sensor_id;sensor_type;location;lat;lon;timestamp;pressure;altitude;pressure_sealevel;temperature;humidity
65546;BME280;52177;55.968;37.498;2023-05-12T00:00:27;100314.31;;;8.21;69.27
65546;BME280;52177;55.968;37.498;2023-05-12T00:00:58;100313.50;;;8.20;69.32
65546;BME280;52177;55.968;37.498;2023-05-12T00:01:28;100315.59;;;8.17;69.49
65546;BME280;52177;55.968;37.498;2023-05-12T00:01:58;100315.88;;;8.14;69.57
65546;BME280;52177;55.968;37.498;2023-05-12T00:02:29;100316.88;;;8.13;69.58
65546;BME280;52177;55.968;37.498;2023-05-12T00:03:00;100317.16;;;8.10;69.69
65546;BME280;52177;55.968;37.498;2023-05-12T00:03:32;100314.66;;;8.08;69.60
65546;BME280;52177;55.968;37.498;2023-05-12T00:04:03;100319.09;;;8.08;69.58
65546;BME280;52177;55.968;37.498;2023-05-12T00:04:33;100318.44;;;8.06;69.61
65546;BME280;52177;55.968;37.498;2023-05-12T00:05:05;100316.75;;;8.04;69.73
65546;BME280;52177;55.968;37.498;2023-05-12T00:05:36;100311.59;;;8.03;69.82
65546;BME280;52177;55.968;37.498;2023-05-12T00:06:06;100310.75;;;8.02;69.85
65546;BME280;52177;55.968;37.498;2023-05-12T00:06:37;100315.09;;;8.03;70.00
65546;BME280;52177;55.968;37.498;2023-05-12T00:07:07;100317.75;;;8.03;69.99
65546;BME280;52177;55.968;37.498;2023-05-12T00:07:38;100316.06;;;8.02;69.93
65546;BME280;52177;55.968;37.498;2023-05-12T00:08:08;100317.88;;;8.02;69.89
65546;BME280;52177;55.968;37.498;2023-05-12T00:08:38;100318.88;;;8.01;69.80
65546;BME280;52177;55.968;37.498;2023-05-12T00:09:09;100310.06;;;8.00;69.79
65546;BME280;52177;55.968;37.498;2023-05-12T00:09:39;100312.56;;;8.02;69.78
65546;BME280;52177;55.968;37.498;2023-05-12T00:10:10;100317.06;;;8.01;69.78
65546;BME280;52177;55.968;37.498;2023-05-12T00:10:41;100318.72;;;8.02;69.65
65546;BME280;52177;55.968;37.498;2023-05-12T00:11:11;100313.84;;;7.98;69.77
65546;BME280;52177;55.968;37.498;2023-05-12T00:11:42;100318.31;;;7.97;69.80
65546;BME280;52177;55.968;37.498;2023-05-12T00:12:12;100313.84;;;7.98;69.77
65546;BME280;52177;55.968;37.498;2023-05-12T00:12:43;100316.50;;;7.98;69.71
65546;BME280;52177;55.968;37.498;2023-05-12T00:13:13;100311.88;;;8.00;69.84
65546;BME280;52177;55.968;37.498;2023-05-12T00:13:43;100317.34;;;7.98;69.72
65546;BME280;52177;55.968;37.498;2023-05-12T00:14:14;100315.53;;;7.99;69.56
65546;BME280;52177;55.968;37.498;2023-05-12T00:14:44;100311.19;;;7.98;69.78
65546;BME280;52177;55.968;37.498;2023-05-12T00:15:15;100315.34;;;8.00;69.74
65546;BME280;52177;55.968;37.498;2023-05-12T00:15:45;100315.91;;;8.04;69.72
65546;BME280;52177;55.968;37.498;2023-05-12T00:16:15;100314.25;;;8.03;69.53
65546;BME280;52177;55.968;37.498;2023-05-12T00:16:47;100311.59;;;8.03;69.51
65546;BME280;52177;55.968;37.498;2023-05-12T00:17:20;100312.56;;;8.02;69.64
65546;BME280;52177;55.968;37.498;2023-05-12T00:17:51;100311.59;;;8.03;69.50
65546;BME280;52177;55.968;37.498;2023-05-12T00:18:21;100308.09;;;8.02;69.55
65546;BME280;52177;55.968;37.498;2023-05-12T00:18:52;100308.94;;;8.03;69.46
65546;BME280;52177;55.968;37.498;2023-05-12T00:19:22;100313.56;;;8.01;69.32
65546;BME280;52177;55.968;37.498;2023-05-12T00:19:53;100309.22;;;8.00;69.39
65546;BME280;52177;55.968;37.498;2023-05-12T00:20:23;100311.88;;;8.00;69.64
65546;BME280;52177;55.968;37.498;2023-05-12T00:20:53;100313.69;;;7.99;69.53
65546;BME280;52177;55.968;37.498;2023-05-12T00:21:24;100311.19;;;7.98;69.53
65546;BME280;52177;55.968;37.498;2023-05-12T00:21:54;100315.78;;;7.96;69.33
65546;BME280;52177;55.968;37.498;2023-05-12T00:22:25;100305.34;;;7.94;69.53
65546;BME280;52177;55.968;37.498;2023-05-12T00:22:55;100308.13;;;7.93;69.59
65546;BME280;52177;55.968;37.498;2023-05-12T00:23:26;100306.47;;;7.92;69.63
65546;BME280;52177;55.968;37.498;2023-05-12T00:23:56;100310.09;;;7.91;69.40
65546;BME280;52177;55.968;37.498;2023-05-12T00:24:26;100307.59;;;7.89;69.47
65546;BME280;52177;55.968;37.498;2023-05-12T00:24:57;100306.72;;;7.89;69.43
65546;BME280;52177;55.968;37.498;2023-05-12T00:25:27;100308.44;;;7.90;69.73
65546;BME280;52177;55.968;37.498;2023-05-12T00:25:58;100307.59;;;7.89;69.67
65546;BME280;52177;55.968;37.498;2023-05-12T00:26:28;100307.59;;;7.89;69.66
65546;BME280;52177;55.968;37.498;2023-05-12T00:26:58;100304.78;;;7.91;69.57
65546;BME280;52177;55.968;37.498;2023-05-12T00:27:28;100307.44;;;7.91;69.53
65546;BME280;52177;55.968;37.498;2023-05-12T00:28:01;100302.13;;;7.91;69.51
65546;BME280;52177;55.968;37.498;2023-05-12T00:28:31;100306.47;;;7.92;69.49
65546;BME280;52177;55.968;37.498;2023-05-12T00:29:01;100305.59;;;7.91;69.53
65546;BME280;52177;55.968;37.498;2023-05-12T00:29:32;100305.47;;;7.93;69.38
65546;BME280;52177;55.968;37.498;2023-05-12T00:30:04;100314.13;;;7.95;69.40
65546;BME280;52177;55.968;37.498;2023-05-12T00:30:34;100300.03;;;7.94;69.33
65546;BME280;52177;55.968;37.498;2023-05-12T00:31:05;100308.00;;;7.94;69.24
65546;BME280;52177;55.968;37.498;2023-05-12T00:31:35;100309.13;;;7.92;69.14
65546;BME280;52177;55.968;37.498;2023-05-12T00:32:05;100308.56;;;7.88;69.36
65546;BME280;52177;55.968;37.498;2023-05-12T00:32:36;100317.78;;;7.84;69.36
65546;BME280;52177;55.968;37.498;2023-05-12T00:33:07;100306.63;;;7.80;69.44
65546;BME280;52177;55.968;37.498;2023-05-12T00:33:37;100304.09;;;7.79;69.53
65546;BME280;52177;55.968;37.498;2023-05-12T00:34:07;100307.06;;;7.76;69.35
65546;BME280;52177;55.968;37.498;2023-05-12T00:34:38;100306.22;;;7.75;69.57
65546;BME280;52177;55.968;37.498;2023-05-12T00:35:08;100305.53;;;7.73;69.69
65546;BME280;52177;55.968;37.498;2023-05-12T00:35:39;100309.31;;;7.71;69.75
65546;BME280;52177;55.968;37.498;2023-05-12T00:36:09;100310.16;;;7.71;69.79
65546;BME280;52177;55.968;37.498;2023-05-12T00:36:40;100303.31;;;7.69;69.72
65546;BME280;52177;55.968;37.498;2023-05-12T00:37:10;100308.63;;;7.69;70.03
65546;BME280;52177;55.968;37.498;2023-05-12T00:37:40;100309.44;;;7.69;70.12
65546;BME280;52177;55.968;37.498;2023-05-12T00:38:12;100306.78;;;7.69;69.91
65546;BME280;52177;55.968;37.498;2023-05-12T00:38:42;100303.44;;;7.67;69.98
65546;BME280;52177;55.968;37.498;2023-05-12T00:39:12;100314.06;;;7.67;69.98
65546;BME280;52177;55.968;37.498;2023-05-12T00:39:43;100301.91;;;7.65;70.03
65546;BME280;52177;55.968;37.498;2023-05-12T00:40:13;100304.69;;;7.63;70.17
65546;BME280;52177;55.968;37.498;2023-05-12T00:40:44;100299.38;;;7.63;70.11
65546;BME280;52177;55.968;37.498;2023-05-12T00:41:14;100307.34;;;7.63;70.01
65546;BME280;52177;55.968;37.498;2023-05-12T00:41:45;100308.47;;;7.60;69.79
65546;BME280;52177;55.968;37.498;2023-05-12T00:42:16;100305.13;;;7.58;70.12
65546;BME280;52177;55.968;37.498;2023-05-12T00:42:47;100305.13;;;7.58;70.00
65546;BME280;52177;55.968;37.498;2023-05-12T00:43:18;100308.78;;;7.57;70.02
65546;BME280;52177;55.968;37.498;2023-05-12T00:43:49;100306.13;;;7.57;70.14
65546;BME280;52177;55.968;37.498;2023-05-12T00:44:19;100307.94;;;7.57;70.11
65546;BME280;52177;55.968;37.498;2023-05-12T00:44:50;100304.47;;;7.56;70.35
65546;BME280;52177;55.968;37.498;2023-05-12T00:45:20;100307.09;;;7.56;70.13
65546;BME280;52177;55.968;37.498;2023-05-12T00:45:51;100305.41;;;7.55;70.23
65546;BME280;52177;55.968;37.498;2023-05-12T00:46:22;100299.41;;;7.53;70.46
65546;BME280;52177;55.968;37.498;2023-05-12T00:46:52;100300.53;;;7.51;70.47
65546;BME280;52177;55.968;37.498;2023-05-12T00:47:23;100305.16;;;7.49;70.14
65546;BME280;52177;55.968;37.498;2023-05-12T00:47:54;100300.00;;;7.47;70.19
65546;BME280;52177;55.968;37.498;2023-05-12T00:48:25;100304.44;;;7.47;70.19
65546;BME280;52177;55.968;37.498;2023-05-12T00:48:57;100303.78;;;7.45;70.38
65546;BME280;52177;55.968;37.498;2023-05-12T00:49:27;100301.25;;;7.43;70.19
65546;BME280;52177;55.968;37.498;2023-05-12T00:49:57;100296.91;;;7.42;70.22
65546;BME280;52177;55.968;37.498;2023-05-12T00:50:28;100301.38;;;7.42;70.24
65546;BME280;52177;55.968;37.498;2023-05-12T00:50:59;100305.03;;;7.40;70.18
65546;BME280;52177;55.968;37.498;2023-05-12T00:51:31;100297.19;;;7.39;70.00
65546;BME280;52177;55.968;37.498;2023-05-12T00:52:01;100299.03;;;7.38;70.26
65546;BME280;52177;55.968;37.498;2023-05-12T00:52:32;100304.47;;;7.37;70.00
65546;BME280;52177;55.968;37.498;2023-05-12T00:53:02;100299.16;;;7.37;70.10
65546;BME280;52177;55.968;37.498;2023-05-12T00:53:33;100303.75;;;7.35;70.03
65546;BME280;52177;55.968;37.498;2023-05-12T00:54:04;100293.31;;;7.33;70.39
65546;BME280;52177;55.968;37.498;2023-05-12T00:54:35;100304.75;;;7.34;70.41
65546;BME280;52177;55.968;37.498;2023-05-12T00:55:07;100304.75;;;7.34;70.46
65546;BME280;52177;55.968;37.498;2023-05-12T00:55:37;100307.41;;;7.34;70.26
65546;BME280;52177;55.968;37.498;2023-05-12T00:56:08;100304.75;;;7.34;70.28
65546;BME280;52177;55.968;37.498;2023-05-12T00:56:38;100305.03;;;7.31;70.29
65546;BME280;52177;55.968;37.498;2023-05-12T00:57:10;100301.53;;;7.30;70.20
65546;BME280;52177;55.968;37.498;2023-05-12T00:57:41;100306.16;;;7.28;70.46
65546;BME280;52177;55.968;37.498;2023-05-12T00:58:12;100304.47;;;7.27;70.42
65546;BME280;52177;55.968;37.498;2023-05-12T00:58:42;100301.69;;;7.29;70.25
65546;BME280;52177;55.968;37.498;2023-05-12T00:59:13;100302.66;;;7.28;70.41
65546;BME280;52177;55.968;37.498;2023-05-12T00:59:43;100302.66;;;7.28;70.39
65546;BME280;52177;55.968;37.498;2023-05-12T01:00:14;100303.50;;;7.28;70.35
65546;BME280;52177;55.968;37.498;2023-05-12T01:00:44;100301.69;;;7.29;70.52
65546;BME280;52177;55.968;37.498;2023-05-12T01:01:15;100296.38;;;7.29;70.26
65546;BME280;52177;55.968;37.498;2023-05-12T01:01:47;100293.72;;;7.29;70.36
65546;BME280;52177;55.968;37.498;2023-05-12T01:02:18;100305.31;;;7.28;70.36
65546;BME280;52177;55.968;37.498;2023-05-12T01:02:48;100300.84;;;7.28;70.04
65546;BME280;52177;55.968;37.498;2023-05-12T01:03:19;100295.69;;;7.27;69.98
65546;BME280;52177;55.968;37.498;2023-05-12T01:03:49;100299.28;;;7.26;70.12
65546;BME280;52177;55.968;37.498;2023-05-12T01:04:20;100305.47;;;7.26;70.10
65546;BME280;52177;55.968;37.498;2023-05-12T01:04:51;100298.47;;;7.25;69.84
65546;BME280;52177;55.968;37.498;2023-05-12T01:05:21;100294.16;;;7.24;70.11
65546;BME280;52177;55.968;37.498;2023-05-12T01:07:16;100297.63;;;7.15;70.38
65546;BME280;52177;55.968;37.498;2023-05-12T01:07:47;100296.94;;;7.13;70.80
65546;BME280;52177;55.968;37.498;2023-05-12T01:08:18;100301.41;;;7.12;71.02
65546;BME280;52177;55.968;37.498;2023-05-12T01:08:49;100300.56;;;7.12;70.90
65546;BME280;52177;55.968;37.498;2023-05-12T01:09:19;100297.06;;;7.11;70.58
65546;BME280;52177;55.968;37.498;2023-05-12T01:09:54;100289.28;;;7.10;70.67
65546;BME280;52177;55.968;37.498;2023-05-12T01:10:27;100293.72;;;7.09;70.82
65546;BME280;52177;55.968;37.498;2023-05-12T01:10:58;100293.72;;;7.09;70.81
65546;BME280;52177;55.968;37.498;2023-05-12T01:11:28;100298.19;;;7.09;70.78
65546;BME280;52177;55.968;37.498;2023-05-12T01:11:58;100294.00;;;7.06;70.72
65546;BME280;52177;55.968;37.498;2023-05-12T01:12:29;100292.34;;;7.05;70.61
65546;BME280;52177;55.968;37.498;2023-05-12T01:13:01;100291.50;;;7.05;70.79
65546;BME280;52177;55.968;37.498;2023-05-12T01:13:32;100295.13;;;7.04;70.91
65546;BME280;52177;55.968;37.498;2023-05-12T01:14:02;100295.25;;;7.02;70.90
65546;BME280;52177;55.968;37.498;2023-05-12T01:14:32;100297.06;;;7.02;71.05
65546;BME280;52177;55.968;37.498;2023-05-12T01:15:03;100293.59;;;7.01;70.98
65546;BME280;52177;55.968;37.498;2023-05-12T01:15:35;100290.81;;;7.03;70.96
65546;BME280;52177;55.968;37.498;2023-05-12T01:16:08;100294.00;;;7.06;71.09
65546;BME280;52177;55.968;37.498;2023-05-12T01:16:53;100294.72;;;7.08;70.80
65546;BME280;52177;55.968;37.498;2023-05-12T01:17:30;100295.53;;;7.09;70.85
65546;BME280;52177;55.968;37.498;2023-05-12T01:18:03;100286.75;;;7.08;70.83
65546;BME280;52177;55.968;37.498;2023-05-12T01:18:37;100294.00;;;7.06;70.62
65546;BME280;52177;55.968;37.498;2023-05-12T01:19:16;100287.16;;;7.04;70.73
65546;BME280;52177;55.968;37.498;2023-05-12T01:19:51;100293.28;;;7.04;70.87
65546;BME280;52177;55.968;37.498;2023-05-12T01:20:24;100293.47;;;7.03;70.66
65546;BME280;52177;55.968;37.498;2023-05-12T01:20:55;100294.56;;;7.00;70.87
65546;BME280;52177;55.968;37.498;2023-05-12T01:21:26;100294.56;;;7.00;71.08
65546;BME280;52177;55.968;37.498;2023-05-12T01:21:57;100294.72;;;6.98;70.85
65546;BME280;52177;55.968;37.498;2023-05-12T01:22:28;100293.88;;;6.98;71.03
65546;BME280;52177;55.968;37.498;2023-05-12T01:23:03;100287.03;;;6.95;70.77
65546;BME280;52177;55.968;37.498;2023-05-12T01:23:36;100293.16;;;6.96;70.67
65546;BME280;52177;55.968;37.498;2023-05-12T01:24:10;100294.13;;;6.95;70.89
65546;BME280;52177;55.968;37.498;2023-05-12T01:24:50;100297.66;;;6.95;70.95
65546;BME280;52177;55.968;37.498;2023-05-12T01:25:22;100294.00;;;6.96;70.79
65546;BME280;52177;55.968;37.498;2023-05-12T01:25:54;100299.88;;;7.00;70.91
65546;BME280;52177;55.968;37.498;2023-05-12T01:26:26;100291.06;;;7.00;71.03
65546;BME280;52177;55.968;37.498;2023-05-12T01:26:59;100293.47;;;7.03;70.81
65546;BME280;52177;55.968;37.498;2023-05-12T01:27:32;100294.16;;;7.05;70.81
65546;BME280;52177;55.968;37.498;2023-05-12T01:28:03;100296.53;;;7.08;70.76
65546;BME280;52177;55.968;37.498;2023-05-12T01:28:34;100296.25;;;7.11;70.60
65546;BME280;52177;55.968;37.498;2023-05-12T01:29:06;100292.63;;;7.12;70.71
65546;BME280;52177;55.968;37.498;2023-05-12T01:29:37;100291.50;;;7.14;70.47
65546;BME280;52177;55.968;37.498;2023-05-12T01:30:09;100293.03;;;7.17;70.32
65546;BME280;52177;55.968;37.498;2023-05-12T01:30:42;100293.75;;;7.19;70.19
65546;BME280;52177;55.968;37.498;2023-05-12T01:31:13;100293.03;;;7.17;70.27
65546;BME280;52177;55.968;37.498;2023-05-12T01:31:43;100289.56;;;7.16;70.26
65546;BME280;52177;55.968;37.498;2023-05-12T01:32:15;100290.38;;;7.17;70.08
65546;BME280;52177;55.968;37.498;2023-05-12T01:32:46;100294.00;;;7.16;70.29
65546;BME280;52177;55.968;37.498;2023-05-12T01:33:16;100289.56;;;7.16;70.16
65546;BME280;52177;55.968;37.498;2023-05-12T01:33:46;100292.22;;;7.16;70.24
65546;BME280;52177;55.968;37.498;2023-05-12T01:34:17;100292.88;;;7.18;70.29
65546;BME280;52177;55.968;37.498;2023-05-12T01:34:47;100287.56;;;7.18;70.08
65546;BME280;52177;55.968;37.498;2023-05-12T01:35:18;100292.75;;;7.20;70.28
65546;BME280;52177;55.968;37.498;2023-05-12T01:35:49;100290.94;;;7.21;70.24
65546;BME280;52177;55.968;37.498;2023-05-12T01:36:19;100290.94;;;7.21;69.98
65546;BME280;52177;55.968;37.498;2023-05-12T01:36:49;100285.78;;;7.19;70.06
65546;BME280;52177;55.968;37.498;2023-05-12T01:37:20;100290.22;;;7.18;70.12
65546;BME280;52177;55.968;37.498;2023-05-12T01:37:50;100292.22;;;7.16;70.13
65546;BME280;52177;55.968;37.498;2023-05-12T01:38:21;100289.69;;;7.15;70.13
65546;BME280;52177;55.968;37.498;2023-05-12T01:38:52;100286.34;;;7.13;70.39
65546;BME280;52177;55.968;37.498;2023-05-12T01:39:22;100287.44;;;7.10;70.59
65546;BME280;52177;55.968;37.498;2023-05-12T01:39:53;100292.75;;;7.10;70.70
65546;BME280;52177;55.968;37.498;2023-05-12T01:40:23;100285.22;;;7.06;70.43
65546;BME280;52177;55.968;37.498;2023-05-12T01:40:54;100294.16;;;7.05;70.82
65546;BME280;52177;55.968;37.498;2023-05-12T01:41:24;100289.81;;;7.04;70.65
65546;BME280;52177;55.968;37.498;2023-05-12T01:41:54;100291.63;;;7.03;70.65
65546;BME280;52177;55.968;37.498;2023-05-12T01:42:25;100291.63;;;7.03;71.02
65546;BME280;52177;55.968;37.498;2023-05-12T01:42:55;100288.84;;;7.05;70.86
65546;BME280;52177;55.968;37.498;2023-05-12T01:43:26;100286.22;;;7.05;70.82
65546;BME280;52177;55.968;37.498;2023-05-12T01:43:56;100293.28;;;7.04;70.68
65546;BME280;52177;55.968;37.498;2023-05-12T01:44:26;100285.63;;;7.01;70.91
65546;BME280;52177;55.968;37.498;2023-05-12T01:44:57;100283.97;;;7.00;70.93
65546;BME280;52177;55.968;37.498;2023-05-12T01:45:27;100289.41;;;6.98;70.90
65546;BME280;52177;55.968;37.498;2023-05-12T01:45:57;100288.56;;;6.98;70.78
65546;BME280;52177;55.968;37.498;2023-05-12T01:46:28;100288.56;;;6.98;70.80
65546;BME280;52177;55.968;37.498;2023-05-12T01:46:58;100289.53;;;6.97;70.94
65546;BME280;52177;55.968;37.498;2023-05-12T01:47:28;100290.38;;;6.97;71.11
65546;BME280;52177;55.968;37.498;2023-05-12T01:47:59;100284.94;;;6.99;71.15
65546;BME280;52177;55.968;37.498;2023-05-12T01:48:29;100295.41;;;7.01;71.06
65546;BME280;52177;55.968;37.498;2023-05-12T01:49:00;100294.56;;;7.00;71.00
65546;BME280;52177;55.968;37.498;2023-05-12T01:49:30;100287.47;;;7.01;70.98
65546;BME280;52177;55.968;37.498;2023-05-12T01:50:00;100293.59;;;7.01;70.79
65546;BME280;52177;55.968;37.498;2023-05-12T01:50:31;100291.94;;;7.00;70.92
65546;BME280;52177;55.968;37.498;2023-05-12T01:51:01;100286.75;;;6.98;71.14
65546;BME280;52177;55.968;37.498;2023-05-12T01:51:32;100291.75;;;7.02;71.16
65546;BME280;52177;55.968;37.498;2023-05-12T01:52:03;100290.94;;;7.01;70.78
65546;BME280;52177;55.968;37.498;2023-05-12T01:52:33;100286.63;;;7.00;70.93
65546;BME280;52177;55.968;37.498;2023-05-12T01:53:04;100294.56;;;7.00;71.09
65546;BME280;52177;55.968;37.498;2023-05-12T01:53:34;100292.88;;;6.99;71.15
65546;BME280;52177;55.968;37.498;2023-05-12T01:54:05;100291.06;;;7.00;71.19
65546;BME280;52177;55.968;37.498;2023-05-12T01:54:35;100292.88;;;6.99;71.20
65546;BME280;52177;55.968;37.498;2023-05-12T01:55:06;100289.53;;;6.97;71.14
65546;BME280;52177;55.968;37.498;2023-05-12T01:55:37;100290.38;;;6.97;71.07
65546;BME280;52177;55.968;37.498;2023-05-12T01:56:07;100291.22;;;6.98;71.24
65546;BME280;52177;55.968;37.498;2023-05-12T01:56:38;100295.53;;;6.99;71.26
65546;BME280;52177;55.968;37.498;2023-05-12T01:57:08;100293.00;;;6.97;71.23
65546;BME280;52177;55.968;37.498;2023-05-12T01:57:38;100292.19;;;6.97;71.21
65546;BME280;52177;55.968;37.498;2023-05-12T01:58:09;100293.00;;;6.97;71.11
65546;BME280;52177;55.968;37.498;2023-05-12T01:58:39;100296.53;;;6.98;70.87
65546;BME280;52177;55.968;37.498;2023-05-12T01:59:09;100305.19;;;7.00;71.06
65546;BME280;52177;55.968;37.498;2023-05-12T01:59:40;100300.72;;;7.01;70.94
65546;BME280;52177;55.968;37.498;2023-05-12T02:00:10;100295.41;;;7.01;71.11
65546;BME280;52177;55.968;37.498;2023-05-12T02:00:41;100295.41;;;7.01;71.09
65546;BME280;52177;55.968;37.498;2023-05-12T02:01:12;100298.88;;;7.01;71.22
65546;BME280;52177;55.968;37.498;2023-05-12T02:01:42;100301.53;;;7.01;70.82
65546;BME280;52177;55.968;37.498;2023-05-12T02:02:13;100302.38;;;7.02;71.09
65546;BME280;52177;55.968;37.498;2023-05-12T02:02:43;100303.19;;;7.02;70.73
65546;BME280;52177;55.968;37.498;2023-05-12T02:03:13;100297.06;;;7.02;71.04
65546;BME280;52177;55.968;37.498;2023-05-12T02:03:43;100295.25;;;7.02;70.60
65546;BME280;52177;55.968;37.498;2023-05-12T02:04:14;100301.53;;;7.01;70.79
65546;BME280;52177;55.968;37.498;2023-05-12T02:04:44;100297.91;;;7.02;70.84
65546;BME280;52177;55.968;37.498;2023-05-12T02:05:14;100295.25;;;7.02;70.97
65546;BME280;52177;55.968;37.498;2023-05-12T02:05:45;100297.91;;;7.02;71.17
65546;BME280;52177;55.968;37.498;2023-05-12T02:06:15;100299.59;;;7.03;71.04
65546;BME280;52177;55.968;37.498;2023-05-12T02:06:46;100299.59;;;7.03;70.93
65546;BME280;52177;55.968;37.498;2023-05-12T02:07:16;100300.41;;;7.04;71.18
65546;BME280;52177;55.968;37.498;2023-05-12T02:07:47;100304.59;;;7.06;71.14
65546;BME280;52177;55.968;37.498;2023-05-12T02:08:17;100302.13;;;7.05;71.10
65546;BME280;52177;55.968;37.498;2023-05-12T02:08:48;100309.06;;;7.06;71.31
65546;BME280;52177;55.968;37.498;2023-05-12T02:09:18;100302.94;;;7.05;71.32
65546;BME280;52177;55.968;37.498;2023-05-12T02:09:49;100311.72;;;7.06;71.49
65546;BME280;52177;55.968;37.498;2023-05-12T02:10:20;100309.06;;;7.06;71.32
65546;BME280;52177;55.968;37.498;2023-05-12T02:11:05;100306.44;;;7.06;71.43
65546;BME280;52177;55.968;37.498;2023-05-12T02:11:36;100314.38;;;7.06;71.55
65546;BME280;52177;55.968;37.498;2023-05-12T02:12:06;100308.25;;;7.05;71.52
65546;BME280;52177;55.968;37.498;2023-05-12T02:12:37;100307.41;;;7.05;71.56
65546;BME280;52177;55.968;37.498;2023-05-12T02:13:08;100310.06;;;7.05;71.69
65546;BME280;52177;55.968;37.498;2023-05-12T02:13:38;100309.22;;;7.04;71.46
65546;BME280;52177;55.968;37.498;2023-05-12T02:14:08;100311.72;;;7.06;71.64
65546;BME280;52177;55.968;37.498;2023-05-12T02:14:39;100310.75;;;7.07;71.62
65546;BME280;52177;55.968;37.498;2023-05-12T02:15:09;100307.97;;;7.08;71.50
65546;BME280;52177;55.968;37.498;2023-05-12T02:15:40;100312.28;;;7.09;71.39
65546;BME280;52177;55.968;37.498;2023-05-12T02:16:11;100302.25;;;7.13;71.61
65546;BME280;52177;55.968;37.498;2023-05-12T02:16:41;100309.91;;;7.16;71.68
65546;BME280;52177;55.968;37.498;2023-05-12T02:17:12;100307.00;;;7.19;71.63
65546;BME280;52177;55.968;37.498;2023-05-12T02:17:42;100302.25;;;7.23;71.41
65546;BME280;52177;55.968;37.498;2023-05-12T02:18:12;100306.28;;;7.27;71.24
65546;BME280;52177;55.968;37.498;2023-05-12T02:18:43;100308.66;;;7.30;70.99
65546;BME280;52177;55.968;37.498;2023-05-12T02:19:13;100299.88;;;7.29;70.93
65546;BME280;52177;55.968;37.498;2023-05-12T02:19:43;100306.81;;;7.30;70.96
65546;BME280;52177;55.968;37.498;2023-05-12T02:20:14;100308.53;;;7.31;71.03
65546;BME280;52177;55.968;37.498;2023-05-12T02:20:44;100306.69;;;7.32;71.18
65546;BME280;52177;55.968;37.498;2023-05-12T02:21:14;100301.25;;;7.33;71.12
65546;BME280;52177;55.968;37.498;2023-05-12T02:21:45;100307.09;;;7.37;71.30
65546;BME280;52177;55.968;37.498;2023-05-12T02:22:15;100296.50;;;7.37;71.16
65546;BME280;52177;55.968;37.498;2023-05-12T02:22:45;100310.63;;;7.37;71.21
65546;BME280;52177;55.968;37.498;2023-05-12T02:23:16;100309.63;;;7.38;71.14
65546;BME280;52177;55.968;37.498;2023-05-12T02:23:46;100299.03;;;7.38;71.17
65546;BME280;52177;55.968;37.498;2023-05-12T02:24:16;100300.69;;;7.39;71.02
65546;BME280;52177;55.968;37.498;2023-05-12T02:24:47;100306.84;;;7.40;71.21
65546;BME280;52177;55.968;37.498;2023-05-12T02:25:18;100300.56;;;7.41;71.34
65546;BME280;52177;55.968;37.498;2023-05-12T02:25:48;100305.72;;;7.43;71.38
65546;BME280;52177;55.968;37.498;2023-05-12T02:26:18;100304.59;;;7.45;71.51
65546;BME280;52177;55.968;37.498;2023-05-12T02:26:50;100301.78;;;7.47;71.12
65546;BME280;52177;55.968;37.498;2023-05-12T02:27:20;100297.19;;;7.49;71.35
65546;BME280;52177;55.968;37.498;2023-05-12T02:27:50;100302.22;;;7.52;71.30
65546;BME280;52177;55.968;37.498;2023-05-12T02:28:21;100303.75;;;7.54;71.16
65546;BME280;52177;55.968;37.498;2023-05-12T02:28:51;100304.47;;;7.56;71.17
65546;BME280;52177;55.968;37.498;2023-05-12T02:29:22;100301.63;;;7.58;71.10
65546;BME280;52177;55.968;37.498;2023-05-12T02:29:52;100305.97;;;7.59;71.30
65546;BME280;52177;55.968;37.498;2023-05-12T02:30:23;100305.00;;;7.60;71.18
65546;BME280;52177;55.968;37.498;2023-05-12T02:30:53;100307.66;;;7.60;71.32
65546;BME280;52177;55.968;37.498;2023-05-12T02:31:23;100312.94;;;7.60;71.36
65546;BME280;52177;55.968;37.498;2023-05-12T02:31:54;100304.84;;;7.61;71.44
65546;BME280;52177;55.968;37.498;2023-05-12T02:32:32;100315.47;;;7.61;71.56
65546;BME280;52177;55.968;37.498;2023-05-12T02:33:03;100305.69;;;7.62;71.41
65546;BME280;52177;55.968;37.498;2023-05-12T02:33:34;100304.84;;;7.61;71.71
65546;BME280;52177;55.968;37.498;2023-05-12T02:34:05;100302.22;;;7.61;71.74
65546;BME280;52177;55.968;37.498;2023-05-12T02:34:36;100302.91;;;7.64;71.58
65546;BME280;52177;55.968;37.498;2023-05-12T02:35:06;100300.25;;;7.64;71.73
65546;BME280;52177;55.968;37.498;2023-05-12T02:35:37;100300.94;;;7.66;71.99
65546;BME280;52177;55.968;37.498;2023-05-12T02:36:08;100304.28;;;7.68;71.83
65546;BME280;52177;55.968;37.498;2023-05-12T02:36:38;100304.00;;;7.71;71.87
65546;BME280;52177;55.968;37.498;2023-05-12T02:37:08;100301.06;;;7.74;71.87
65546;BME280;52177;55.968;37.498;2023-05-12T02:37:39;100303.41;;;7.77;71.69
65546;BME280;52177;55.968;37.498;2023-05-12T02:38:09;100304.09;;;7.79;71.92
65546;BME280;52177;55.968;37.498;2023-05-12T02:38:40;100309.16;;;7.82;71.80
65546;BME280;52177;55.968;37.498;2023-05-12T02:39:11;100303.53;;;7.85;71.80
65546;BME280;52177;55.968;37.498;2023-05-12T02:39:41;100310.25;;;7.89;71.83
65546;BME280;52177;55.968;37.498;2023-05-12T02:40:12;100307.28;;;7.92;71.78
65546;BME280;52177;55.968;37.498;2023-05-12T02:40:42;100306.16;;;7.95;71.86
65546;BME280;52177;55.968;37.498;2023-05-12T02:41:13;100305.88;;;7.98;71.78
65546;BME280;52177;55.968;37.498;2023-05-12T02:41:43;100300.44;;;7.99;71.79
65546;BME280;52177;55.968;37.498;2023-05-12T02:42:13;100306.44;;;8.01;71.85
65546;BME280;52177;55.968;37.498;2023-05-12T02:42:44;100304.47;;;8.03;72.07
65546;BME280;52177;55.968;37.498;2023-05-12T02:43:14;100310.31;;;8.07;72.09